La Push, WA (98350)

1:27 AM PST on January 22, 2017 (GMT -0800)
Quillayute Airport | | Change Station
Active Advisory: Gale Warning

Elev 167 ft 47.94 °N, 124.57 °W | Updated 21 seconds ago

Partly Cloudy
Partly Cloudy
36.7 °F
Feels Like 37 °F
N
2.0
Wind Variable Wind from SSE

Today
High -- | Low -- °F
--% Chance of Precip.
Yesterday
High -- | Low -- °F
Precip. -- in
Pressure 29.50 in
Visibility 10.0 miles
Clouds Few 2700 ft
Mostly Cloudy 7000 ft
Mostly Cloudy 8500 ft
Windchill 37 °F
Dew Point 36 °F
Humidity 98%
Rainfall 0.00 in
Snow Depth Not available.
7:56 AM 5:04 PM
Waning Crescent, 28% visible
METAR KUIL 220853Z AUTO 08007KT 10SM FEW027 BKN070 BKN085 04/03 A2949 RMK AO2 SLP988 60000 T00390028 58004
Pressure 29.50 in
Visibility 10.0 miles
Clouds Few 2700 ft
Mostly Cloudy 7000 ft
Mostly Cloudy 8500 ft
Windchill 37 °F
Dew Point 36 °F
Humidity 98%
Rainfall 0.00 in
Snow Depth Not available.
7:56 AM 5:04 PM
Waning Crescent, 28% visible
METAR KUIL 220853Z AUTO 08007KT 10SM FEW027 BKN070 BKN085 04/03 A2949 RMK AO2 SLP988 60000 T00390028 58004

Get Your Daily Forecast Email!

Thanks for signing up!

Be on the lookout for a verification email in your inbox.

You'll start receiving the daily forecast at 8 AM.

×

10-Day Weather Forecast

Almanac

Astronomy

Jan. 22, 2017 Rise Set
Actual Time
Civil Twilight
Nautical Twilight
Astronomical Twilight
Moon
Length of Visible Light
Length of Day
Tomorrow will be .
, % of the Moon is Illuminated

Today's Extremes

State Highs State Lows

Community

WunderPhotos

Upload Photos

1,962,540 photos uploaded!

WunderBlog® & News

Nearby

Air Quality

  Air Quality AQ Index Pollutant
Not available.

Snow Depth

Station Depth Elevation

Earthquake Activity

City Distance Mag. Time & Date
Minimum magnitude displayed is 2.5.

Coastal Water Temperatures

Place Temperature

Stations

Nearby Weather Stations

Station Location Temp. Windchill Dew Point Humidity Wind Precip. Elev Updated Type
                   

Watches & Warnings

Gale Warning
Issued: 8:57 PM PST Jan. 21, 2017 – National Weather Service

... Gale Warning remains in effect until 6 PM PST Sunday...

* winds... south to southeast wind 15 to 30 knots rising to 25 to
35 knots late tonight through Sunday afternoon.

Precautionary/preparedness actions...

A Gale Warning means winds of 34 to 47 knots are imminent or
occuring. Operating a vessel in gale conditions requires experience
and properly equipped vessels. It is highly recommended that
mariners without the proper experience seek safe Harbor prior to
the onset of gale conditions.